This demonstration page uses our WeatherBlox Daily Observations layout. Learn more.

39.92423, -83.80882

Hourly Observations for August 14, 2018

Temp ( °F °C ) Dew Point ( °F °C ) Humidity (%) Winds ( mph kmh ) Pressure ( in mb ) Visibility ( mi km ) Precip ( " mm )
1:56 am 01:56 Mostly Clear with Mist and Fog 62 16.7 62 16.7 100 100 W 5 7 30.04 1017 5 8.0467 0 0
2:56 am 02:56 Clear 62 16.7 62 16.7 100 100 Calm 30.02 1017 7 11.26538 0 0
3:56 am 03:56 Clear 61 16.1 61 16.1 100 100 Calm 30.01 1016 7 11.26538 0 0
4:56 am 04:56 Clear 60 15.6 60 15.6 100 100 ENE 3 6 30.01 1016 10 16.0934 0 0
5:56 am 05:56 Clear 60 15.6 60 15.6 100 100 Calm 30.01 1016 7 11.26538 0 0
6:56 am 06:56 Sunny with Mist and Fog 59 15 59 15 100 100 Calm 30.02 1017 3 4.82802 0 0
7:56 am 07:56 Sunny 63 17.2 63 17.2 100 100 Calm 30.03 1017 7 11.26538 0 0
8:56 am 08:56 Sunny 69 20.6 66 18.9 90 90 WSW 3 6 30.04 1017 10 16.0934 0 0
9:56 am 09:56 Sunny 74 23.3 67 19.4 79 79 SW 5 7 30.04 1017 10 16.0934 0 0
10:56 am 10:56 Sunny 77 25 67 19.4 71 71 SSW 5 7 30.05 1018 10 16.0934 0 0
11:56 am 11:56 Mostly Cloudy 80 26.7 68 20 67 67 WSW 8 13 30.05 1018 10 16.0934 0 0
12:56 pm 12:56 Mostly Cloudy 81 27.2 66 18.9 61 61 SW 7 11 30.04 1017 10 16.0934 0 0
1:56 pm 13:56 Mostly Sunny 82 27.8 67 19.4 60 60 WNW 7 11 30.04 1017 10 16.0934 0 0
2:56 pm 14:56 Mostly Sunny 81 27.2 67 19.4 62 62 Calm 30.02 1017 10 16.0934 0 0
3:56 pm 15:56 Mostly Sunny 83 28.3 68 20 61 61 WSW 8 13 30 1016 10 16.0934 0 0
4:56 pm 16:56 Mostly Cloudy 82 27.8 68 20 63 63 WSW 6 9 29.99 1016 10 16.0934 0 0
6:56 pm 18:56 Sunny 82 27.8 67 19.4 60 60 NW 6 9 29.99 1016 10 16.0934 0 0
7:56 pm 19:56 Sunny 78 25.6 67 19.4 69 69 NW 5 7 30 1016 10 16.0934 0 0
8:56 pm 20:56 Clear 72 22.2 67 19.4 84 84 Calm 30 1016 10 16.0934 0 0
9:56 pm 21:56 Clear 69 20.6 67 19.4 93 93 Calm 30.02 1017 10 16.0934 0 0
10:56 pm 22:56 Clear 67 19.4 67 19.4 100 100 Calm 30.02 1017 10 16.0934 0 0
11:56 pm 23:56 Clear 67 19.4 66 18.9 97 97 Calm 30.02 1017 10 16.0934 0 0

Powered by AerisWeather